Flight Track Log - Related Links

Times and Time Zones

All times are in EDT time to prevent confusion due to time zone crossing. See the UAL4431 flight status page for this flight to view local times or setup timezone preferences in your user account.

Time Position Orientation Groundspeed Altitude Reporting Facility
EDT Latitude Longitude Course Direction KTS MPH feet Rate Location/Type
Tue 04:48:55 PM 29.9572 -95.3392 214° Southwest 164 189 800  Level Houston Center
Tue 04:49:31 PM 29.9381 -95.3150 132° Southeast 170 196 1,900 1,358 Climbing Houston Center
Tue 04:49:48 PM 29.9358 -95.3103 119° Southeast 174 200 2,000 1,935 Climbing Houston Center
Tue 04:50:33 PM 29.9017 -95.2617 129° Southeast 235 270 3,900 2,323 Climbing Houston Center
Tue 04:50:50 PM 29.8908 -95.2419 122° Southeast 211 243 4,400 2,464 Climbing Houston Center
Tue 04:51:29 PM 29.8622 -95.1989 127° Southeast 260 299 6,200 2,613 Climbing Houston Center
Tue 04:51:52 PM 29.8481 -95.1742 123° Southeast 254 292 7,100 2,259 Climbing Houston Center
Tue 04:52:00 PM 29.6201 -95.6299 221° Southwest  Level Estimated
Tue 04:52:54 PM 29.7903 -95.1261 144° Southeast 279 321 9,400  Level Houston Center
Tue 04:53:00 PM 29.5289 -95.7017 214° Southwest  Level Estimated
Tue 04:53:31 PM 29.7325 -95.1353 188° South 301 346 10,900  Level Houston Center
Tue 04:53:56 PM 29.7078 -95.1469 202° Southwest 305 351 11,500 1,379 Climbing Houston Center
Tue 04:54:00 PM 29.4376 -95.7734 214° Southwest  Level Estimated
Tue 04:54:58 PM 29.6250 -95.1964 207° Southwest 325 374 12,900  Level Houston Center
Tue 04:56:00 PM 29.5275 -95.2531 207° Southwest 352 405 14,700 1,584 Climbing Houston Center
Tue 04:57:03 PM 29.4381 -95.3053 207° Southwest 358 412 16,200 1,488 Climbing Houston Center
Tue 04:58:05 PM 29.3467 -95.3586 207° Southwest 365 420 17,800 1,500 Climbing Houston Center
Tue 04:59:07 PM 29.2542 -95.4106 206° Southwest 369 425 19,300 1,355 Climbing Houston Center
Tue 05:00:09 PM 29.1414 -95.4758 207° Southwest 375 432 20,600 1,210 Climbing Houston Center
Tue 05:01:11 PM 29.0447 -95.5308 206° Southwest 386 444 21,800 1,113 Climbing Houston Center
Tue 05:02:13 PM 28.9478 -95.5858 206° Southwest 387 445 22,900 1,065 Climbing Houston Center
Tue 05:03:15 PM 28.8539 -95.6408 207° Southwest 386 444 24,000 1,056 Climbing Houston Center
Tue 05:04:18 PM 28.7614 -95.6942 207° Southwest 377 434 25,100 960 Climbing Houston Center
Tue 05:05:20 PM 28.6669 -95.7497 207° Southwest 378 435 26,000 435 Climbing Houston Center
Tue 05:06:22 PM 28.5481 -95.8186 207° Southwest 399 459 26,000  Level Houston Center
Tue 05:07:24 PM 28.4414 -95.8803 207° Southwest 425 489 26,000  Level Houston Center
Tue 05:08:26 PM 28.3256 -95.9522 209° Southwest 445 512 26,000 -48 Level Houston Center
Tue 05:09:28 PM 28.2403 -96.0386 222° Southwest 454 522 25,900 -48 Descending Houston Center
Tue 05:10:30 PM 28.1311 -96.1597 224° Southwest 458 527 25,900  Level Houston Center
Tue 05:11:33 PM 28.0400 -96.2589 224° Southwest 455 524 25,900 48 Level Houston Center
Tue 05:12:35 PM 27.9419 -96.3639 223° Southwest 456 525 26,000 48 Climbing Houston Center
Tue 05:13:37 PM 27.8486 -96.4656 224° Southwest 456 525 26,000  Level Houston Center
Tue 05:14:39 PM 27.7553 -96.5667 224° Southwest 455 524 26,000  Level Houston Center
Tue 05:15:42 PM 27.6550 -96.6753 224° Southwest 455 524 26,000  Level Houston Center
Tue 05:16:43 PM 27.5619 -96.7753 224° Southwest 454 522 26,000  Level Houston Center
Tue 05:17:45 PM 27.4692 -96.8742 223° Southwest 454 522 26,000  Level Houston Center
Tue 05:18:48 PM 27.3761 -96.9742 224° Southwest 453 521 26,000  Level Houston Center
Tue 05:19:50 PM 27.2842 -97.0731 224° Southwest 452 520 26,000 -194 Level Houston Center
Tue 05:20:52 PM 27.1903 -97.1728 223° Southwest 452 520 25,600 -1,161 Descending Houston Center
Tue 05:21:54 PM 27.0969 -97.2719 223° Southwest 452 520 23,600 -2,000 Descending Houston Center
Tue 05:22:22 PM 27.0544 -97.3161 223° Southwest 454 522 22,600 -2,129 Descending Houston Center
Tue 05:22:56 PM 26.9975 -97.3786 224° Southwest 449 517 21,400 -1,973 Descending Houston Center
Tue 05:23:35 PM 26.9469 -97.4294 222° Southwest 437 503 20,200 -1,935 Descending Houston Center
Tue 05:23:58 PM 26.9086 -97.4725 225° Southwest 435 501 19,400 -2,091 Descending Houston Center
Tue 05:24:41 PM 26.8489 -97.5319 222° Southwest 425 489 17,900 -2,226 Descending Houston Center
Tue 05:25:00 PM 26.8236 -97.5611 226° Southwest 424 488 17,100 -2,557 Descending Houston Center
Tue 05:25:42 PM 26.7658 -97.6206 223° Southwest 406 467 15,300 -2,571 Descending Houston Center
Tue 05:26:03 PM 26.7372 -97.6533 226° Southwest 401 461 14,400 -2,557 Descending Houston Center
Tue 05:26:43 PM 26.6828 -97.7092 223° Southwest 384 442 12,700 -2,323 Descending Houston Center
Tue 05:27:05 PM 26.6608 -97.7333 225° Southwest 380 437 12,000 -1,574 Descending Houston Center
Tue 05:27:44 PM 26.6111 -97.7842 222° Southwest 354 407 11,100 -1,355 Descending Houston Center
Tue 05:28:07 PM 26.5869 -97.8111 225° Southwest 336 387 10,600 -1,180 Descending Houston Center
Tue 05:28:45 PM 26.5467 -97.8514 222° Southwest 305 351 9,900 -1,355 Descending Houston Center
Tue 05:29:09 PM 26.5258 -97.8739 224° Southwest 301 346 9,200 -1,727 Descending Houston Center
Tue 05:29:51 PM 26.4867 -97.9200 227° Southwest 290 334 8,000 -1,839 Descending Houston Center
Tue 05:30:11 PM 26.4747 -97.9497 246° West 291 335 7,300 -1,869 Descending Houston Center
Tue 05:30:52 PM 26.4514 -98.0042 244° Southwest 280 322 6,100 -1,645 Descending Houston Center
Tue 05:31:13 PM 26.4425 -98.0286 248° West 283 326 5,600 -1,475 Descending Houston Center
Tue 05:31:53 PM 26.4217 -98.0806 246° West 266 306 4,600 -1,333 Descending Houston Center
Tue 05:32:16 PM 26.4131 -98.1061 249° West 254 292 4,200 -982 Descending Houston Center
Tue 05:32:48 PM 26.3989 -98.1442 247° West 246 283 3,700 -968 Descending Houston Center
Tue 05:33:18 PM 26.3844 -98.1706 239° Southwest 234 269 3,200 -885 Descending Houston Center
Tue 05:33:49 PM 26.3575 -98.1892 212° Southwest 214 246 2,800 -774 Descending Houston Center
Tue 05:34:20 PM 26.3303 -98.2114 216° Southwest 219 252 2,400 -700 Descending Houston Center
Tue 05:34:49 PM 26.3067 -98.2286 213° Southwest 219 252 2,100 -290 Descending Houston Center
Tue 05:35:22 PM 26.2789 -98.2503 215° Southwest 220 253 2,100 -218 Level Houston Center
Tue 05:35:44 PM 26.2581 -98.2650 212° Southwest 224 258 1,900 -871 Descending Houston Center
Tue 05:36:24 PM 26.2275 -98.2828 208° Southwest 197 227 1,200 -806 Descending Houston Center
Tue 05:36:51 PM 26.2128 -98.2756 156° South 153 176 1,000 -484 Descending Houston Center
Tue 05:37:26 PM 26.1928 -98.2569 140° Southeast 154 177 700 -514 Descending Houston Center

Login

Don't have an account? Register now (free) for customized features, flight alerts, and more!